sensor_id;sensor_type;location;lat;lon;timestamp;pressure;altitude;pressure_sealevel;temperature;humidity
76819;BME280;65772;51.096;17.006;2022-12-11T00:01:49;99421.77;;;2.93;66.04
76819;BME280;65772;51.096;17.006;2022-12-11T00:04:19;99416.34;;;2.88;66.23
76819;BME280;65772;51.096;17.006;2022-12-11T00:06:50;99415.48;;;2.84;66.15
76819;BME280;65772;51.096;17.006;2022-12-11T00:09:21;99414.83;;;2.81;66.22
76819;BME280;65772;51.096;17.006;2022-12-11T00:11:51;99412.70;;;2.79;66.32
76819;BME280;65772;51.096;17.006;2022-12-11T00:14:22;99416.69;;;2.77;66.18
76819;BME280;65772;51.096;17.006;2022-12-11T00:16:52;99413.01;;;2.74;66.23
76819;BME280;65772;51.096;17.006;2022-12-11T00:19:23;99417.91;;;2.71;66.44
76819;BME280;65772;51.096;17.006;2022-12-11T00:21:54;99415.88;;;2.67;66.34
76819;BME280;65772;51.096;17.006;2022-12-11T00:24:24;99415.14;;;2.65;66.40
76819;BME280;65772;51.096;17.006;2022-12-11T00:26:55;99417.44;;;2.60;66.35
76819;BME280;65772;51.096;17.006;2022-12-11T00:29:26;99414.41;;;2.57;66.42
76819;BME280;65772;51.096;17.006;2022-12-11T00:31:56;99414.63;;;2.54;66.61
76819;BME280;65772;51.096;17.006;2022-12-11T00:34:27;99417.42;;;2.53;66.75
76819;BME280;65772;51.096;17.006;2022-12-11T00:36:58;99414.27;;;2.57;66.64
76819;BME280;65772;51.096;17.006;2022-12-11T00:39:28;99421.09;;;2.59;66.53
76819;BME280;65772;51.096;17.006;2022-12-11T00:41:59;99422.47;;;2.63;66.55
76819;BME280;65772;51.096;17.006;2022-12-11T00:44:29;99424.73;;;2.66;66.48
76819;BME280;65772;51.096;17.006;2022-12-11T00:47:00;99422.18;;;2.65;66.54
76819;BME280;65772;51.096;17.006;2022-12-11T00:49:30;99421.30;;;2.64;66.55
76819;BME280;65772;51.096;17.006;2022-12-11T00:52:01;99423.92;;;2.66;66.57
76819;BME280;65772;51.096;17.006;2022-12-11T00:54:32;99420.66;;;2.69;66.68
76819;BME280;65772;51.096;17.006;2022-12-11T00:57:03;99414.06;;;2.68;66.69
76819;BME280;65772;51.096;17.006;2022-12-11T00:59:33;99406.61;;;2.67;66.86
76819;BME280;65772;51.096;17.006;2022-12-11T01:02:04;99401.81;;;2.65;66.87
76819;BME280;65772;51.096;17.006;2022-12-11T01:04:36;99402.75;;;2.63;66.98
76819;BME280;65772;51.096;17.006;2022-12-11T01:07:07;99407.67;;;2.64;67.33
76819;BME280;65772;51.096;17.006;2022-12-11T01:09:37;99408.65;;;2.63;67.39
76819;BME280;65772;51.096;17.006;2022-12-11T01:12:25;99419.46;;;2.60;67.42
76819;BME280;65772;51.096;17.006;2022-12-11T01:14:56;99426.66;;;2.56;67.23
76819;BME280;65772;51.096;17.006;2022-12-11T01:17:27;99425.32;;;2.52;67.29
76819;BME280;65772;51.096;17.006;2022-12-11T01:19:57;99421.73;;;2.47;67.20
76819;BME280;65772;51.096;17.006;2022-12-11T01:22:28;99425.02;;;2.46;67.25
76819;BME280;65772;51.096;17.006;2022-12-11T01:24:59;99426.30;;;2.45;67.49
76819;BME280;65772;51.096;17.006;2022-12-11T01:27:29;99429.34;;;2.51;67.60
76819;BME280;65772;51.096;17.006;2022-12-11T01:29:59;99434.77;;;2.56;67.31
76819;BME280;65772;51.096;17.006;2022-12-11T01:32:31;99432.31;;;2.62;67.43
76819;BME280;65772;51.096;17.006;2022-12-11T01:35:03;99430.55;;;2.67;67.58
76819;BME280;65772;51.096;17.006;2022-12-11T01:37:33;99434.05;;;2.70;67.39
76819;BME280;65772;51.096;17.006;2022-12-11T01:40:06;99432.59;;;2.71;67.33
76819;BME280;65772;51.096;17.006;2022-12-11T01:42:37;99434.56;;;2.74;67.23
76819;BME280;65772;51.096;17.006;2022-12-11T01:45:28;99430.41;;;2.75;67.27
76819;BME280;65772;51.096;17.006;2022-12-11T01:48:05;99427.61;;;2.73;67.20
76819;BME280;65772;51.096;17.006;2022-12-11T01:50:40;99428.91;;;2.72;67.33
76819;BME280;65772;51.096;17.006;2022-12-11T01:53:18;99423.09;;;2.70;67.09
76819;BME280;65772;51.096;17.006;2022-12-11T01:55:52;99424.80;;;2.67;67.05
76819;BME280;65772;51.096;17.006;2022-12-11T01:58:27;99421.70;;;2.66;67.22
76819;BME280;65772;51.096;17.006;2022-12-11T02:00:59;99412.75;;;2.65;67.23
76819;BME280;65772;51.096;17.006;2022-12-11T02:03:30;99406.23;;;2.62;67.17
76819;BME280;65772;51.096;17.006;2022-12-11T02:06:01;99405.35;;;2.58;67.05
76819;BME280;65772;51.096;17.006;2022-12-11T02:08:31;99396.48;;;2.51;67.12
76819;BME280;65772;51.096;17.006;2022-12-11T02:11:09;99389.35;;;2.43;66.99
76819;BME280;65772;51.096;17.006;2022-12-11T02:13:46;99385.40;;;2.38;67.17
76819;BME280;65772;51.096;17.006;2022-12-11T02:16:22;99385.60;;;2.35;67.16
76819;BME280;65772;51.096;17.006;2022-12-11T02:19:01;99376.88;;;2.32;67.30
76819;BME280;65772;51.096;17.006;2022-12-11T02:21:36;99373.40;;;2.29;67.51
76819;BME280;65772;51.096;17.006;2022-12-11T02:24:34;99366.59;;;2.35;67.26
76819;BME280;65772;51.096;17.006;2022-12-11T02:27:21;99361.67;;;2.38;67.32
76819;BME280;65772;51.096;17.006;2022-12-11T02:29:54;99360.05;;;2.39;67.16
76819;BME280;65772;51.096;17.006;2022-12-11T02:32:32;99363.64;;;2.37;67.22
76819;BME280;65772;51.096;17.006;2022-12-11T02:35:10;99374.29;;;2.38;67.12
76819;BME280;65772;51.096;17.006;2022-12-11T02:37:45;99378.91;;;2.39;67.23
76819;BME280;65772;51.096;17.006;2022-12-11T02:40:21;99378.14;;;2.41;67.24
76819;BME280;65772;51.096;17.006;2022-12-11T02:42:55;99375.27;;;2.41;67.16
76819;BME280;65772;51.096;17.006;2022-12-11T02:45:28;99373.20;;;2.39;67.27
76819;BME280;65772;51.096;17.006;2022-12-11T02:48:02;99376.70;;;2.39;67.26
76819;BME280;65772;51.096;17.006;2022-12-11T02:50:36;99378.80;;;2.37;67.14
76819;BME280;65772;51.096;17.006;2022-12-11T02:53:10;99380.29;;;2.33;67.14
76819;BME280;65772;51.096;17.006;2022-12-11T02:55:44;99374.95;;;2.27;67.16
76819;BME280;65772;51.096;17.006;2022-12-11T02:58:18;99378.70;;;2.20;67.09
76819;BME280;65772;51.096;17.006;2022-12-11T03:00:51;99383.29;;;2.14;67.10
76819;BME280;65772;51.096;17.006;2022-12-11T03:03:22;99383.45;;;2.10;67.27
76819;BME280;65772;51.096;17.006;2022-12-11T03:05:52;99384.03;;;2.05;67.19
76819;BME280;65772;51.096;17.006;2022-12-11T03:08:23;99381.88;;;2.02;67.28
76819;BME280;65772;51.096;17.006;2022-12-11T03:10:54;99381.74;;;1.99;67.45
76819;BME280;65772;51.096;17.006;2022-12-11T03:13:25;99384.48;;;1.94;67.43
76819;BME280;65772;51.096;17.006;2022-12-11T03:16:06;99384.31;;;1.90;67.40
76819;BME280;65772;51.096;17.006;2022-12-11T03:18:47;99387.40;;;1.91;67.57
76819;BME280;65772;51.096;17.006;2022-12-11T03:21:25;99388.08;;;1.94;67.63
76819;BME280;65772;51.096;17.006;2022-12-11T03:24:04;99389.05;;;1.94;67.45
76819;BME280;65772;51.096;17.006;2022-12-11T03:26:40;99385.92;;;1.99;67.55
76819;BME280;65772;51.096;17.006;2022-12-11T03:29:16;99385.76;;;2.06;67.66
76819;BME280;65772;51.096;17.006;2022-12-11T03:31:53;99390.21;;;2.11;67.78
76819;BME280;65772;51.096;17.006;2022-12-11T03:34:28;99394.23;;;2.14;67.81
76819;BME280;65772;51.096;17.006;2022-12-11T03:37:01;99393.70;;;2.17;67.65
76819;BME280;65772;51.096;17.006;2022-12-11T03:39:34;99396.15;;;2.18;67.80
76819;BME280;65772;51.096;17.006;2022-12-11T03:42:09;99393.48;;;2.19;67.65
76819;BME280;65772;51.096;17.006;2022-12-11T03:44:43;99388.52;;;2.17;67.56
76819;BME280;65772;51.096;17.006;2022-12-11T03:47:19;99386.24;;;2.16;67.78
76819;BME280;65772;51.096;17.006;2022-12-11T03:49:52;99389.97;;;2.13;67.68
76819;BME280;65772;51.096;17.006;2022-12-11T03:52:25;99390.58;;;2.08;67.73
76819;BME280;65772;51.096;17.006;2022-12-11T03:54:59;99391.02;;;2.03;67.90
76819;BME280;65772;51.096;17.006;2022-12-11T03:57:34;99388.07;;;1.98;67.80
76819;BME280;65772;51.096;17.006;2022-12-11T04:00:08;99384.34;;;1.97;67.97
76819;BME280;65772;51.096;17.006;2022-12-11T04:02:40;99378.27;;;1.94;68.03
76819;BME280;65772;51.096;17.006;2022-12-11T04:05:12;99371.14;;;1.88;68.02
76819;BME280;65772;51.096;17.006;2022-12-11T04:07:42;99365.05;;;1.81;68.06
76819;BME280;65772;51.096;17.006;2022-12-11T04:10:13;99368.27;;;1.77;68.11
76819;BME280;65772;51.096;17.006;2022-12-11T04:12:44;99364.75;;;1.82;68.24
76819;BME280;65772;51.096;17.006;2022-12-11T04:15:14;99367.84;;;1.83;68.10
76819;BME280;65772;51.096;17.006;2022-12-11T04:17:45;99366.77;;;1.82;68.25
76819;BME280;65772;51.096;17.006;2022-12-11T04:20:41;99369.44;;;1.85;68.37
76819;BME280;65772;51.096;17.006;2022-12-11T04:23:29;99363.55;;;1.92;68.39
76819;BME280;65772;51.096;17.006;2022-12-11T04:26:19;99361.64;;;1.98;68.11
76819;BME280;65772;51.096;17.006;2022-12-11T04:28:50;99356.73;;;2.00;68.43
76819;BME280;65772;51.096;17.006;2022-12-11T04:31:21;99357.02;;;2.03;68.26
76819;BME280;65772;51.096;17.006;2022-12-11T04:33:53;99357.80;;;2.05;68.24
76819;BME280;65772;51.096;17.006;2022-12-11T04:36:23;99359.63;;;2.05;68.07
76819;BME280;65772;51.096;17.006;2022-12-11T04:38:54;99357.50;;;2.06;68.01
76819;BME280;65772;51.096;17.006;2022-12-11T04:41:24;99356.95;;;2.09;68.19
76819;BME280;65772;51.096;17.006;2022-12-11T04:43:55;99354.74;;;2.08;68.05
76819;BME280;65772;51.096;17.006;2022-12-11T04:46:25;99353.33;;;2.03;67.86
76819;BME280;65772;51.096;17.006;2022-12-11T04:48:56;99352.86;;;1.97;67.81
76819;BME280;65772;51.096;17.006;2022-12-11T04:51:28;99357.79;;;1.91;67.78
76819;BME280;65772;51.096;17.006;2022-12-11T04:53:59;99355.66;;;1.85;67.58
76819;BME280;65772;51.096;17.006;2022-12-11T04:56:30;99354.58;;;1.80;67.65
76819;BME280;65772;51.096;17.006;2022-12-11T04:59:01;99353.09;;;1.74;67.76
76819;BME280;65772;51.096;17.006;2022-12-11T05:01:31;99351.70;;;1.66;67.53
76819;BME280;65772;51.096;17.006;2022-12-11T05:04:02;99345.80;;;1.58;67.60
76819;BME280;65772;51.096;17.006;2022-12-11T05:06:32;99351.51;;;1.55;67.71
76819;BME280;65772;51.096;17.006;2022-12-11T05:09:03;99346.50;;;1.52;67.86
76819;BME280;65772;51.096;17.006;2022-12-11T05:11:33;99340.35;;;1.57;67.54
76819;BME280;65772;51.096;17.006;2022-12-11T05:14:05;99342.38;;;1.57;67.55
76819;BME280;65772;51.096;17.006;2022-12-11T05:16:35;99343.74;;;1.58;67.51
76819;BME280;65772;51.096;17.006;2022-12-11T05:19:06;99338.88;;;1.58;67.43
76819;BME280;65772;51.096;17.006;2022-12-11T05:21:37;99335.90;;;1.55;67.50
76819;BME280;65772;51.096;17.006;2022-12-11T05:24:08;99332.88;;;1.59;67.50
76819;BME280;65772;51.096;17.006;2022-12-11T05:26:39;99330.73;;;1.60;67.47
76819;BME280;65772;51.096;17.006;2022-12-11T05:29:09;99331.36;;;1.59;67.36
76819;BME280;65772;51.096;17.006;2022-12-11T05:31:40;99332.63;;;1.61;67.35
76819;BME280;65772;51.096;17.006;2022-12-11T05:34:11;99335.67;;;1.61;67.24
76819;BME280;65772;51.096;17.006;2022-12-11T05:36:41;99334.19;;;1.58;67.25
76819;BME280;65772;51.096;17.006;2022-12-11T05:39:12;99330.76;;;1.57;67.22
76819;BME280;65772;51.096;17.006;2022-12-11T05:41:42;99331.03;;;1.56;67.24
76819;BME280;65772;51.096;17.006;2022-12-11T05:44:13;99329.55;;;1.53;67.19
76819;BME280;65772;51.096;17.006;2022-12-11T05:46:44;99329.81;;;1.52;67.03
76819;BME280;65772;51.096;17.006;2022-12-11T05:49:14;99333.75;;;1.50;67.09
76819;BME280;65772;51.096;17.006;2022-12-11T05:51:48;99331.47;;;1.47;67.18
76819;BME280;65772;51.096;17.006;2022-12-11T05:54:18;99331.00;;;1.44;67.13
76819;BME280;65772;51.096;17.006;2022-12-11T05:56:49;99327.55;;;1.43;67.07
76819;BME280;65772;51.096;17.006;2022-12-11T05:59:20;99331.67;;;1.41;66.91
76819;BME280;65772;51.096;17.006;2022-12-11T06:01:51;99336.95;;;1.39;66.94
76819;BME280;65772;51.096;17.006;2022-12-11T06:04:22;99338.69;;;1.36;66.89
76819;BME280;65772;51.096;17.006;2022-12-11T06:06:53;99336.79;;;1.32;66.90
76819;BME280;65772;51.096;17.006;2022-12-11T06:09:24;99337.98;;;1.29;66.87
76819;BME280;65772;51.096;17.006;2022-12-11T06:11:54;99341.24;;;1.28;66.91
76819;BME280;65772;51.096;17.006;2022-12-11T06:14:25;99345.30;;;1.34;66.95
76819;BME280;65772;51.096;17.006;2022-12-11T06:16:55;99348.16;;;1.38;66.97
76819;BME280;65772;51.096;17.006;2022-12-11T06:19:26;99349.61;;;1.40;66.74
76819;BME280;65772;51.096;17.006;2022-12-11T06:22:04;99354.37;;;1.44;66.71
76819;BME280;65772;51.096;17.006;2022-12-11T06:24:35;99355.27;;;1.50;66.62
76819;BME280;65772;51.096;17.006;2022-12-11T06:27:06;99357.45;;;1.53;66.63
76819;BME280;65772;51.096;17.006;2022-12-11T06:29:37;99351.40;;;1.56;66.73
76819;BME280;65772;51.096;17.006;2022-12-11T06:32:07;99355.42;;;1.60;66.68
76819;BME280;65772;51.096;17.006;2022-12-11T06:34:38;99364.33;;;1.59;66.38
76819;BME280;65772;51.096;17.006;2022-12-11T06:37:09;99372.91;;;1.59;66.51
76819;BME280;65772;51.096;17.006;2022-12-11T06:39:39;99376.02;;;1.57;66.41
76819;BME280;65772;51.096;17.006;2022-12-11T06:42:10;99376.86;;;1.57;66.53
76819;BME280;65772;51.096;17.006;2022-12-11T06:44:41;99379.68;;;1.56;66.37
76819;BME280;65772;51.096;17.006;2022-12-11T06:47:12;99377.05;;;1.54;66.40
76819;BME280;65772;51.096;17.006;2022-12-11T06:49:42;99377.41;;;1.52;66.42
76819;BME280;65772;51.096;17.006;2022-12-11T06:52:13;99378.29;;;1.49;66.27
76819;BME280;65772;51.096;17.006;2022-12-11T06:54:47;99377.74;;;1.48;66.24
76819;BME280;65772;51.096;17.006;2022-12-11T06:57:18;99380.90;;;1.43;66.19
76819;BME280;65772;51.096;17.006;2022-12-11T06:59:48;99382.11;;;1.37;66.15
76819;BME280;65772;51.096;17.006;2022-12-11T07:02:19;99381.11;;;1.31;66.02
76819;BME280;65772;51.096;17.006;2022-12-11T07:04:50;99383.25;;;1.27;66.19
76819;BME280;65772;51.096;17.006;2022-12-11T07:07:23;99382.37;;;1.23;66.15
76819;BME280;65772;51.096;17.006;2022-12-11T07:09:54;99382.23;;;1.20;66.28
76819;BME280;65772;51.096;17.006;2022-12-11T07:12:24;99386.80;;;1.18;66.46
76819;BME280;65772;51.096;17.006;2022-12-11T07:14:56;99384.64;;;1.15;66.46
76819;BME280;65772;51.096;17.006;2022-12-11T07:17:26;99386.73;;;1.13;66.58
76819;BME280;65772;51.096;17.006;2022-12-11T07:19:57;99385.56;;;1.13;66.38
76819;BME280;65772;51.096;17.006;2022-12-11T07:22:28;99386.29;;;1.18;66.33
76819;BME280;65772;51.096;17.006;2022-12-11T07:24:59;99388.37;;;1.22;66.34
76819;BME280;65772;51.096;17.006;2022-12-11T07:27:29;99388.13;;;1.23;66.35
76819;BME280;65772;51.096;17.006;2022-12-11T07:30:00;99384.47;;;1.28;66.35
76819;BME280;65772;51.096;17.006;2022-12-11T07:32:30;99387.21;;;1.29;66.24
76819;BME280;65772;51.096;17.006;2022-12-11T07:35:01;99388.79;;;1.27;66.20
76819;BME280;65772;51.096;17.006;2022-12-11T07:37:32;99394.84;;;1.30;66.26
76819;BME280;65772;51.096;17.006;2022-12-11T07:40:02;99395.85;;;1.33;66.19
76819;BME280;65772;51.096;17.006;2022-12-11T07:42:33;99392.85;;;1.34;66.18
76819;BME280;65772;51.096;17.006;2022-12-11T07:45:04;99388.91;;;1.32;66.08
76819;BME280;65772;51.096;17.006;2022-12-11T07:47:35;99382.95;;;1.31;66.04
76819;BME280;65772;51.096;17.006;2022-12-11T07:50:08;99384.47;;;1.31;65.93
76819;BME280;65772;51.096;17.006;2022-12-11T07:52:38;99381.74;;;1.27;65.89
76819;BME280;65772;51.096;17.006;2022-12-11T07:55:10;99381.70;;;1.26;65.79
76819;BME280;65772;51.096;17.006;2022-12-11T07:57:41;99383.93;;;1.24;65.59
76819;BME280;65772;51.096;17.006;2022-12-11T08:00:12;99386.09;;;1.20;65.68
76819;BME280;65772;51.096;17.006;2022-12-11T08:02:43;99384.64;;;1.14;65.53
76819;BME280;65772;51.096;17.006;2022-12-11T08:05:14;99383.47;;;1.11;65.66
76819;BME280;65772;51.096;17.006;2022-12-11T08:07:44;99387.86;;;1.08;65.48
76819;BME280;65772;51.096;17.006;2022-12-11T08:10:15;99389.78;;;1.03;65.33
76819;BME280;65772;51.096;17.006;2022-12-11T08:12:46;99395.03;;;0.98;65.48
76819;BME280;65772;51.096;17.006;2022-12-11T08:15:17;99394.91;;;0.95;65.47
76819;BME280;65772;51.096;17.006;2022-12-11T08:17:47;99393.31;;;0.94;65.63
76819;BME280;65772;51.096;17.006;2022-12-11T08:20:18;99393.27;;;0.93;65.62
76819;BME280;65772;51.096;17.006;2022-12-11T08:22:48;99390.17;;;0.91;65.61
76819;BME280;65772;51.096;17.006;2022-12-11T08:25:27;99385.42;;;0.87;65.47
76819;BME280;65772;51.096;17.006;2022-12-11T08:27:57;99388.30;;;0.88;65.65
76819;BME280;65772;51.096;17.006;2022-12-11T08:30:28;99391.61;;;1.00;65.61
76819;BME280;65772;51.096;17.006;2022-12-11T08:32:59;99390.73;;;1.09;65.63
76819;BME280;65772;51.096;17.006;2022-12-11T08:35:29;99389.03;;;1.18;65.40
76819;BME280;65772;51.096;17.006;2022-12-11T08:38:00;99383.78;;;1.27;65.37
76819;BME280;65772;51.096;17.006;2022-12-11T08:40:30;99383.20;;;1.36;65.23
76819;BME280;65772;51.096;17.006;2022-12-11T08:43:00;99382.60;;;1.44;65.07
76819;BME280;65772;51.096;17.006;2022-12-11T08:45:31;99382.05;;;1.50;65.02
76819;BME280;65772;51.096;17.006;2022-12-11T08:48:02;99384.88;;;1.53;64.73
76819;BME280;65772;51.096;17.006;2022-12-11T08:50:33;99385.02;;;1.49;64.52
76819;BME280;65772;51.096;17.006;2022-12-11T08:53:04;99382.95;;;1.44;64.21
76819;BME280;65772;51.096;17.006;2022-12-11T08:55:34;99386.70;;;1.42;64.10
76819;BME280;65772;51.096;17.006;2022-12-11T08:58:05;99392.98;;;1.43;64.08
76819;BME280;65772;51.096;17.006;2022-12-11T09:00:36;99395.52;;;1.43;64.08
76819;BME280;65772;51.096;17.006;2022-12-11T09:03:06;99398.64;;;1.45;64.01
76819;BME280;65772;51.096;17.006;2022-12-11T09:05:41;99399.16;;;1.45;63.94
76819;BME280;65772;51.096;17.006;2022-12-11T09:08:12;99395.30;;;1.42;63.73
76819;BME280;65772;51.096;17.006;2022-12-11T09:10:42;99395.94;;;1.38;63.66
76819;BME280;65772;51.096;17.006;2022-12-11T09:13:13;99389.36;;;1.38;63.61
76819;BME280;65772;51.096;17.006;2022-12-11T09:15:44;99385.98;;;1.38;63.72
76819;BME280;65772;51.096;17.006;2022-12-11T09:18:14;99381.08;;;1.37;63.64
76819;BME280;65772;51.096;17.006;2022-12-11T09:20:45;99376.05;;;1.37;63.34
76819;BME280;65772;51.096;17.006;2022-12-11T09:23:15;99374.17;;;1.37;63.35
76819;BME280;65772;51.096;17.006;2022-12-11T09:25:46;99366.16;;;1.31;63.51
76819;BME280;65772;51.096;17.006;2022-12-11T09:28:17;99371.33;;;1.24;63.39
76819;BME280;65772;51.096;17.006;2022-12-11T09:30:48;99366.30;;;1.14;63.56
76819;BME280;65772;51.096;17.006;2022-12-11T09:33:19;99362.31;;;1.09;63.54
76819;BME280;65772;51.096;17.006;2022-12-11T09:35:58;99354.59;;;1.05;63.66
76819;BME280;65772;51.096;17.006;2022-12-11T09:38:30;99353.42;;;1.05;63.76
76819;BME280;65772;51.096;17.006;2022-12-11T09:41:02;99351.27;;;1.03;63.84
76819;BME280;65772;51.096;17.006;2022-12-11T09:43:47;99349.97;;;1.00;63.91
76819;BME280;65772;51.096;17.006;2022-12-11T09:46:20;99352.52;;;1.01;63.97
76819;BME280;65772;51.096;17.006;2022-12-11T09:48:53;99349.73;;;0.99;63.81
76819;BME280;65772;51.096;17.006;2022-12-11T09:51:26;99345.86;;;0.96;63.70
76819;BME280;65772;51.096;17.006;2022-12-11T09:54:02;99341.15;;;0.95;63.66
76819;BME280;65772;51.096;17.006;2022-12-11T09:56:35;99340.67;;;0.96;63.61
76819;BME280;65772;51.096;17.006;2022-12-11T09:59:15;99338.52;;;0.93;63.60
76819;BME280;65772;51.096;17.006;2022-12-11T10:01:57;99334.52;;;0.90;63.58
76819;BME280;65772;51.096;17.006;2022-12-11T10:04:39;99330.39;;;0.89;63.70
76819;BME280;65772;51.096;17.006;2022-12-11T10:07:17;99331.16;;;0.84;63.69
76819;BME280;65772;51.096;17.006;2022-12-11T10:09:53;99330.73;;;0.86;63.78
76819;BME280;65772;51.096;17.006;2022-12-11T10:12:36;99328.05;;;0.86;63.80
76819;BME280;65772;51.096;17.006;2022-12-11T10:15:28;99332.23;;;0.85;63.95
76819;BME280;65772;51.096;17.006;2022-12-11T10:18:01;99325.66;;;0.85;63.99
76819;BME280;65772;51.096;17.006;2022-12-11T10:20:34;99317.88;;;0.87;63.97
76819;BME280;65772;51.096;17.006;2022-12-11T10:23:18;99312.27;;;0.86;63.86
76819;BME280;65772;51.096;17.006;2022-12-11T10:25:55;99309.20;;;0.82;63.80
76819;BME280;65772;51.096;17.006;2022-12-11T10:28:28;99303.98;;;0.82;63.86
76819;BME280;65772;51.096;17.006;2022-12-11T10:31:03;99303.80;;;0.84;63.63
76819;BME280;65772;51.096;17.006;2022-12-11T10:33:47;99306.52;;;0.85;63.45
76819;BME280;65772;51.096;17.006;2022-12-11T10:36:22;99306.33;;;0.75;63.22
76819;BME280;65772;51.096;17.006;2022-12-11T10:38:55;99306.52;;;0.68;63.05
76819;BME280;65772;51.096;17.006;2022-12-11T10:41:35;99301.27;;;0.65;63.19
76819;BME280;65772;51.096;17.006;2022-12-11T10:44:15;99304.18;;;0.62;62.97
76819;BME280;65772;51.096;17.006;2022-12-11T10:46:48;99299.70;;;0.53;62.74
76819;BME280;65772;51.096;17.006;2022-12-11T10:49:23;99300.67;;;0.49;62.86
76819;BME280;65772;51.096;17.006;2022-12-11T10:51:55;99298.67;;;0.44;62.77
76819;BME280;65772;51.096;17.006;2022-12-11T10:54:33;99298.06;;;0.42;62.85
76819;BME280;65772;51.096;17.006;2022-12-11T10:57:08;99292.40;;;0.36;62.82
76819;BME280;65772;51.096;17.006;2022-12-11T10:59:44;99290.54;;;0.29;63.03
76819;BME280;65772;51.096;17.006;2022-12-11T11:02:22;99291.27;;;0.24;63.06
76819;BME280;65772;51.096;17.006;2022-12-11T11:04:56;99289.50;;;0.22;63.28
76819;BME280;65772;51.096;17.006;2022-12-11T11:07:28;99286.05;;;0.20;63.42
76819;BME280;65772;51.096;17.006;2022-12-11T11:10:13;99281.35;;;0.20;63.50
76819;BME280;65772;51.096;17.006;2022-12-11T11:12:46;99271.69;;;0.25;63.41
76819;BME280;65772;51.096;17.006;2022-12-11T11:15:16;99277.38;;;0.31;63.27
76819;BME280;65772;51.096;17.006;2022-12-11T11:17:49;99271.83;;;0.30;63.03
76819;BME280;65772;51.096;17.006;2022-12-11T11:20:25;99268.00;;;0.35;62.88
76819;BME280;65772;51.096;17.006;2022-12-11T11:22:58;99269.48;;;0.34;62.79
76819;BME280;65772;51.096;17.006;2022-12-11T11:25:30;99260.77;;;0.31;62.69
76819;BME280;65772;51.096;17.006;2022-12-11T11:28:04;99260.99;;;0.33;62.84
76819;BME280;65772;51.096;17.006;2022-12-11T11:30:37;99256.61;;;0.32;62.86
76819;BME280;65772;51.096;17.006;2022-12-11T11:33:14;99257.41;;;0.38;62.96
76819;BME280;65772;51.096;17.006;2022-12-11T11:35:54;99256.61;;;0.42;62.98
76819;BME280;65772;51.096;17.006;2022-12-11T11:38:27;99254.84;;;0.43;62.86
76819;BME280;65772;51.096;17.006;2022-12-11T11:41:07;99249.94;;;0.46;62.81
76819;BME280;65772;51.096;17.006;2022-12-11T11:43:45;99244.41;;;0.46;62.79
76819;BME280;65772;51.096;17.006;2022-12-11T11:46:20;99244.50;;;0.48;62.65
76819;BME280;65772;51.096;17.006;2022-12-11T11:48:59;99241.48;;;0.48;62.70
76819;BME280;65772;51.096;17.006;2022-12-11T11:51:38;99234.71;;;0.47;62.63
76819;BME280;65772;51.096;17.006;2022-12-11T11:54:17;99235.25;;;0.44;62.70
76819;BME280;65772;51.096;17.006;2022-12-11T11:56:50;99240.28;;;0.37;62.63
76819;BME280;65772;51.096;17.006;2022-12-11T11:59:24;99241.78;;;0.31;62.77
76819;BME280;65772;51.096;17.006;2022-12-11T12:01:57;99240.09;;;0.24;62.67
76819;BME280;65772;51.096;17.006;2022-12-11T12:04:32;99236.35;;;0.20;62.65
76819;BME280;65772;51.096;17.006;2022-12-11T12:07:16;99235.83;;;0.14;62.72
76819;BME280;65772;51.096;17.006;2022-12-11T12:09:56;99236.54;;;0.07;62.81
76819;BME280;65772;51.096;17.006;2022-12-11T12:12:36;99239.89;;;0.01;62.80
76819;BME280;65772;51.096;17.006;2022-12-11T12:15:17;99237.96;;;-0.04;62.99
76819;BME280;65772;51.096;17.006;2022-12-11T12:17:53;99235.05;;;-0.05;63.04
76819;BME280;65772;51.096;17.006;2022-12-11T12:20:31;99234.58;;;-0.02;63.24
76819;BME280;65772;51.096;17.006;2022-12-11T12:23:27;99237.77;;;0.02;63.28
76819;BME280;65772;51.096;17.006;2022-12-11T12:26:12;99234.01;;;0.04;63.25
76819;BME280;65772;51.096;17.006;2022-12-11T12:28:51;99230.12;;;0.00;63.48
76819;BME280;65772;51.096;17.006;2022-12-11T12:31:49;99232.98;;;0.07;63.56
76819;BME280;65772;51.096;17.006;2022-12-11T12:34:33;99229.57;;;0.03;63.40
76819;BME280;65772;51.096;17.006;2022-12-11T12:37:12;99227.29;;;0.04;63.49
76819;BME280;65772;51.096;17.006;2022-12-11T12:39:52;99232.81;;;0.04;63.54
76819;BME280;65772;51.096;17.006;2022-12-11T12:42:33;99232.36;;;0.02;63.55
76819;BME280;65772;51.096;17.006;2022-12-11T12:45:24;99236.97;;;-0.01;63.76
76819;BME280;65772;51.096;17.006;2022-12-11T12:47:56;99235.20;;;-0.05;63.83
76819;BME280;65772;51.096;17.006;2022-12-11T12:50:31;99231.00;;;-0.06;63.82
76819;BME280;65772;51.096;17.006;2022-12-11T12:53:06;99226.34;;;-0.05;63.78
76819;BME280;65772;51.096;17.006;2022-12-11T12:55:40;99224.20;;;-0.10;63.83
76819;BME280;65772;51.096;17.006;2022-12-11T12:58:29;99226.09;;;-0.13;63.85
76819;BME280;65772;51.096;17.006;2022-12-11T13:01:09;99226.77;;;-0.09;63.96
76819;BME280;65772;51.096;17.006;2022-12-11T13:03:55;99227.87;;;-0.11;63.94
76819;BME280;65772;51.096;17.006;2022-12-11T13:06:32;99229.64;;;-0.12;64.02
76819;BME280;65772;51.096;17.006;2022-12-11T13:09:17;99233.65;;;-0.18;63.89
76819;BME280;65772;51.096;17.006;2022-12-11T13:11:50;99239.66;;;-0.25;63.95
76819;BME280;65772;51.096;17.006;2022-12-11T13:14:28;99238.50;;;-0.31;63.91
76819;BME280;65772;51.096;17.006;2022-12-11T13:17:21;99236.48;;;-0.37;63.85
76819;BME280;65772;51.096;17.006;2022-12-11T13:20:12;99240.17;;;-0.34;64.00
76819;BME280;65772;51.096;17.006;2022-12-11T13:22:52;99239.01;;;-0.34;63.97
76819;BME280;65772;51.096;17.006;2022-12-11T13:25:26;99230.30;;;-0.40;63.74
76819;BME280;65772;51.096;17.006;2022-12-11T13:28:07;99234.70;;;-0.40;63.81
76819;BME280;65772;51.096;17.006;2022-12-11T13:31:02;99233.99;;;-0.37;63.75
76819;BME280;65772;51.096;17.006;2022-12-11T13:33:40;99230.54;;;-0.42;63.69
76819;BME280;65772;51.096;17.006;2022-12-11T13:36:31;99229.13;;;-0.46;63.57